Airport Name : Bobo Dioulasso

Other Name : Bobo Dioulasso

ICAO : DFOO

IATA : BOY

FAA :

Latitude : 11.160056

Longitude : -4.330969

Country : Burkina Faso

Local Date and Time : 29 Oct 2020 05:14

 

TAF (Terminal Aerodrome Forecast)

TAF DFOO 290500Z 2906/3006 VRB06KT 8000 NSC TEMPO 2906/2910 3500 HZ TEMPO 2917/2920 4000 HZ

 

METAR (METeorological Aerodrome Report)

DFOO 290400Z 00000KT 8000 NSC 21/13 Q1012

DFOO 290300Z 28002KT 8000 NSC 24/12 Q1012

DFOO 290200Z 32004KT 8000 NSC 23/14 Q1012

To Charter a Jet Click here.